CKY6 weather

CLOSED Gainsborough Airport
Gainsborough, Saskatchewan, Canada

Public forecast

Using degrees Celsius for public forecast. Weather courtesy of forecast.io.

Closest aviation weather report (METAR) to Gainsborough Airport

Closest report is Minot Air Force Base, 46.2 nm (85.5 km) S. Retrieved 2019/11/12 14:56 UTC (54 minutes ago):

KMIB 121456Z AUTO 18008KT 10SM CLR M10/M15 A2986 RMK AO2 SLP155 T11041147 57036

Closest aviation forecast (TAF) to Gainsborough Airport

Forecast is more than 6 hours old.

Closest forecast is Minot Air Force Base, 46.2 nm (85.5 km) S. Retrieved 2019/11/12 09:06 UTC (7 hours ago):

TAF KMIB 120900Z 1209/1315 13009KT 9999 SCT180 QNH2972INS BECMG 1305/1306 30006KT 8000 -SN BKN006 QNH2976INS TXM03/1220Z TNM13/1209Z